Time;durP1;ratioP1;P1;durP2;ratioP2;P2;SDS_P1;SDS_P2;PMS_P1;PMS_P2;Temp;Humidity;BMP_temperature;BMP_pressure;BME280_temperature;BME280_humidity;BME280_pressure;Samples;Min_cycle;Max_cycle;Signal;HPM_P1;HPM_P2
2021/08/16 00:01:19;;;;;;;8.02;2.63;;;29.40;48.40;;;;;;6153474;28;20039;-74
2021/08/16 00:04:21;;;;;;;12.10;2.67;;;29.40;48.40;;;;;;6136524;29;20047;-74
2021/08/16 00:07:23;;;;;;;11.02;2.92;;;29.40;48.60;;;;;;6136493;29;20043;-75
2021/08/16 00:10:24;;;;;;;9.55;2.88;;;29.30;48.80;;;;;;6136618;29;20393;-75
2021/08/16 00:13:25;;;;;;;6.43;2.45;;;29.30;48.90;;;;;;6152228;29;20384;-75
2021/08/16 00:16:27;;;;;;;4.30;2.60;;;29.20;49.00;;;;;;6152728;29;20043;-75
2021/08/16 00:19:28;;;;;;;10.63;2.50;;;29.20;49.30;;;;;;6152128;28;20070;-75
2021/08/16 00:22:30;;;;;;;7.25;2.42;;;29.20;49.50;;;;;;6135886;29;20039;-74
2021/08/16 00:25:31;;;;;;;7.60;2.70;;;29.20;49.40;;;;;;6136484;29;20369;-76
2021/08/16 00:28:32;;;;;;;6.82;2.70;;;29.10;49.30;;;;;;6153389;28;20044;-74
2021/08/16 00:31:33;;;;;;;11.98;3.45;;;29.10;49.40;;;;;;6136266;29;20043;-75
2021/08/16 00:34:34;;;;;;;5.60;2.67;;;29.10;49.40;;;;;;6151046;28;20039;-74
2021/08/16 00:37:35;;;;;;;8.00;3.00;;;29.10;49.30;;;;;;6152407;28;20036;-74
2021/08/16 00:40:36;;;;;;;4.40;2.58;;;29.10;49.20;;;;;;6153000;28;20065;-74
2021/08/16 00:43:37;;;;;;;5.97;2.42;;;29.10;49.10;;;;;;6151920;29;20070;-74
2021/08/16 00:46:39;;;;;;;7.70;3.08;;;29.00;48.80;;;;;;6151791;29;20039;-74
2021/08/16 00:49:41;;;;;;;14.27;3.08;;;29.00;48.70;;;;;;6153009;28;20067;-74
2021/08/16 00:52:44;;;;;;;6.82;3.42;;;29.00;48.50;;;;;;6154850;28;20138;-74
2021/08/16 00:55:48;;;;;;;12.00;3.30;;;29.00;48.30;;;;;;6152403;28;20035;-75
2021/08/16 00:58:50;;;;;;;7.03;3.22;;;29.00;48.10;;;;;;6151796;29;20051;-74
2021/08/16 01:01:51;;;;;;;8.18;2.53;;;29.00;47.90;;;;;;6151853;28;20341;-76
2021/08/16 01:04:54;;;;;;;11.63;3.03;;;29.00;47.90;;;;;;6144563;28;20122;-74
2021/08/16 01:07:55;;;;;;;6.63;3.85;;;28.90;47.80;;;;;;6151709;29;20480;-74
2021/08/16 01:10:56;;;;;;;7.05;3.30;;;28.90;47.70;;;;;;6152604;28;20107;-74
2021/08/16 01:13:57;;;;;;;4.88;2.80;;;28.90;47.50;;;;;;6151183;28;20043;-75
2021/08/16 01:16:59;;;;;;;11.95;3.00;;;28.90;47.40;;;;;;6152955;28;20035;-75
2021/08/16 01:20:02;;;;;;;6.43;3.20;;;28.90;47.40;;;;;;6152848;28;20412;-74
2021/08/16 01:23:04;;;;;;;8.25;3.17;;;28.90;47.40;;;;;;6175701;28;20440;-74
2021/08/16 01:26:05;;;;;;;6.88;3.25;;;28.90;47.40;;;;;;6176381;28;20057;-73
2021/08/16 01:29:18;;;;;;;7.53;3.53;;;28.80;47.40;;;;;;6158845;28;20459;-74
2021/08/16 01:32:19;;;;;;;8.23;3.15;;;28.80;47.60;;;;;;6168511;28;20047;-75
2021/08/16 01:35:21;;;;;;;5.90;3.13;;;28.80;47.60;;;;;;6150978;28;20484;-74
2021/08/16 01:38:30;;;;;;;7.45;3.38;;;28.80;47.70;;;;;;6148783;28;20046;-74
2021/08/16 01:41:32;;;;;;;10.95;4.28;;;28.70;47.70;;;;;;6149314;28;20130;-75
2021/08/16 01:44:33;;;;;;;9.90;3.22;;;28.70;47.90;;;;;;6149727;28;20468;-75
2021/08/16 01:47:34;;;;;;;12.00;3.10;;;28.70;48.00;;;;;;6153722;28;20039;-75
2021/08/16 01:50:35;;;;;;;6.45;3.22;;;28.60;48.20;;;;;;6154684;28;20035;-75
2021/08/16 01:53:36;;;;;;;11.20;3.38;;;28.50;48.30;;;;;;6154989;28;20480;-75
2021/08/16 01:56:38;;;;;;;8.48;3.40;;;28.50;48.50;;;;;;6154279;28;20054;-75
2021/08/16 01:59:39;;;;;;;6.85;3.53;;;28.50;48.60;;;;;;6154347;28;20043;-74
2021/08/16 02:02:41;;;;;;;11.57;3.95;;;28.50;48.70;;;;;;6154892;28;20413;-75
2021/08/16 02:05:42;;;;;;;9.38;3.47;;;28.50;48.70;;;;;;6155287;28;20035;-75
2021/08/16 02:08:43;;;;;;;5.75;3.33;;;28.50;48.70;;;;;;6154078;28;20416;-74
2021/08/16 02:11:44;;;;;;;8.68;3.72;;;28.40;49.30;;;;;;6154164;28;20090;-75
2021/08/16 02:14:45;;;;;;;8.05;3.40;;;28.40;48.80;;;;;;6153977;28;20058;-75
2021/08/16 02:17:46;;;;;;;9.40;3.80;;;28.40;48.80;;;;;;6155125;28;20504;-73
2021/08/16 02:20:47;;;;;;;12.25;2.92;;;28.40;48.80;;;;;;6154458;28;20103;-76
2021/08/16 02:23:48;;;;;;;9.75;3.20;;;28.40;48.80;;;;;;6153660;28;20055;-74
2021/08/16 02:26:49;;;;;;;11.75;3.42;;;28.40;48.80;;;;;;6154978;28;20071;-75
2021/08/16 02:29:50;;;;;;;11.43;3.58;;;28.40;48.90;;;;;;6137664;28;20126;-75
2021/08/16 02:32:52;;;;;;;8.45;3.15;;;28.40;48.90;;;;;;6154233;28;20039;-75
2021/08/16 02:35:53;;;;;;;8.57;3.70;;;28.30;48.90;;;;;;6153623;28;20122;-75
2021/08/16 02:38:54;;;;;;;9.88;3.67;;;28.30;48.90;;;;;;6154735;28;20338;-75
2021/08/16 02:41:55;;;;;;;6.07;3.35;;;28.30;48.90;;;;;;6153713;28;20524;-76
2021/08/16 02:44:56;;;;;;;6.20;3.05;;;28.30;48.90;;;;;;6153269;28;20445;-74
2021/08/16 02:47:57;;;;;;;7.03;3.20;;;28.30;49.00;;;;;;6153552;28;20027;-75
2021/08/16 02:50:58;;;;;;;5.30;3.30;;;28.20;49.00;;;;;;6154412;28;20063;-75
2021/08/16 02:53:59;;;;;;;10.18;3.63;;;28.20;49.20;;;;;;6153354;28;20039;-75
2021/08/16 02:57:00;;;;;;;7.30;3.15;;;28.20;49.20;;;;;;6152602;28;20114;-75
2021/08/16 03:00:04;;;;;;;7.00;2.90;;;28.20;49.30;;;;;;6152986;28;20053;-75
2021/08/16 03:03:05;;;;;;;10.63;3.05;;;28.10;49.20;;;;;;6155281;28;20043;-75
2021/08/16 03:06:06;;;;;;;7.38;3.20;;;28.10;49.30;;;;;;6152857;28;20460;-76
2021/08/16 03:09:07;;;;;;;6.63;2.97;;;28.10;49.30;;;;;;6169123;28;20392;-75
2021/08/16 03:12:08;;;;;;;6.38;3.05;;;28.10;49.40;;;;;;6151787;28;20054;-75
2021/08/16 03:15:11;;;;;;;9.93;3.45;;;28.10;49.40;;;;;;6153951;28;20047;-75
2021/08/16 03:18:12;;;;;;;8.15;3.10;;;28.10;49.40;;;;;;6153470;28;20047;-74
2021/08/16 03:21:14;;;;;;;6.97;2.90;;;28.00;49.40;;;;;;6136147;28;20027;-74
2021/08/16 03:24:15;;;;;;;10.00;3.63;;;28.00;49.50;;;;;;6152386;28;20090;-76
2021/08/16 03:27:16;;;;;;;7.80;3.15;;;28.00;49.60;;;;;;6168647;28;20110;-75
2021/08/16 03:30:17;;;;;;;6.75;3.10;;;28.00;49.70;;;;;;6168524;28;20500;-74
2021/08/16 03:33:18;;;;;;;7.55;3.22;;;28.00;49.90;;;;;;6152451;28;20054;-74
2021/08/16 03:36:19;;;;;;;11.00;3.97;;;27.90;49.90;;;;;;6152395;28;20035;-74
2021/08/16 03:39:20;;;;;;;9.40;3.55;;;27.90;50.00;;;;;;6135928;28;20047;-75
2021/08/16 03:42:21;;;;;;;7.95;3.08;;;27.90;50.10;;;;;;6152476;28;20046;-75
2021/08/16 03:45:23;;;;;;;5.65;3.20;;;27.90;50.20;;;;;;6152109;28;20050;-75
2021/08/16 03:48:24;;;;;;;6.07;3.13;;;27.90;50.30;;;;;;6152079;28;20046;-74
2021/08/16 03:51:25;;;;;;;8.57;3.25;;;27.80;50.40;;;;;;6152474;28;20043;-75
2021/08/16 03:54:26;;;;;;;12.13;4.13;;;27.80;50.30;;;;;;6151923;28;20122;-74
2021/08/16 03:57:27;;;;;;;8.63;3.50;;;27.80;50.30;;;;;;6135908;28;20035;-75
2021/08/16 04:00:28;;;;;;;9.68;3.47;;;27.80;50.20;;;;;;6151932;28;20046;-74
2021/08/16 04:03:29;;;;;;;12.90;3.50;;;27.80;50.20;;;;;;6151407;28;20055;-74
2021/08/16 04:06:30;;;;;;;8.88;3.67;;;27.70;50.10;;;;;;6136283;28;20360;-75
2021/08/16 04:09:32;;;;;;;7.05;3.10;;;27.70;50.10;;;;;;6154273;28;20031;-74
2021/08/16 04:12:33;;;;;;;6.50;3.30;;;27.70;50.10;;;;;;6152685;28;20043;-74
2021/08/16 04:15:34;;;;;;;5.43;3.10;;;27.70;50.00;;;;;;6151683;28;20066;-75
2021/08/16 04:18:36;;;;;;;8.02;3.13;;;27.70;49.90;;;;;;6135001;28;20059;-74
2021/08/16 04:21:37;;;;;;;9.95;3.30;;;27.60;49.90;;;;;;6152308;28;20027;-74
2021/08/16 04:24:39;;;;;;;5.65;2.75;;;27.60;49.90;;;;;;6152200;28;20175;-74
2021/08/16 04:27:40;;;;;;;13.55;3.47;;;27.60;49.90;;;;;;6151762;28;20060;-75
2021/08/16 04:30:42;;;;;;;10.05;3.10;;;27.60;49.90;;;;;;6151190;28;20049;-73
2021/08/16 04:33:43;;;;;;;5.95;3.13;;;27.50;49.90;;;;;;6150609;28;20039;-74
2021/08/16 04:36:44;;;;;;;11.65;2.70;;;27.50;50.00;;;;;;6151098;28;20059;-73
2021/08/16 04:39:45;;;;;;;12.88;3.90;;;27.50;50.00;;;;;;6151025;28;20811;-73
2021/08/16 04:42:46;;;;;;;9.35;3.40;;;27.40;50.00;;;;;;6150768;28;20058;-73
2021/08/16 04:45:48;;;;;;;4.10;2.72;;;27.40;50.00;;;;;;6151816;28;20450;-73
2021/08/16 04:48:49;;;;;;;6.13;2.70;;;27.40;50.10;;;;;;6134367;28;20032;-73
2021/08/16 04:51:50;;;;;;;10.35;3.58;;;27.40;50.00;;;;;;6151848;28;20035;-73
2021/08/16 04:54:52;;;;;;;5.38;2.65;;;27.40;50.00;;;;;;6133382;28;20043;-73
2021/08/16 04:57:53;;;;;;;10.35;3.38;;;27.40;50.00;;;;;;6150625;28;20032;-74
2021/08/16 05:00:54;;;;;;;7.30;3.03;;;27.40;50.00;;;;;;6150445;28;20479;-73
2021/08/16 05:03:55;;;;;;;4.93;2.78;;;27.30;50.10;;;;;;6153701;28;20039;-73
2021/08/16 05:06:56;;;;;;;17.88;4.15;;;27.30;50.00;;;;;;6149435;28;20103;-73
2021/08/16 05:09:59;;;;;;;9.60;3.17;;;27.30;50.10;;;;;;6151500;28;20043;-73
2021/08/16 05:13:01;;;;;;;11.20;3.70;;;27.30;50.20;;;;;;6150303;28;20054;-73
2021/08/16 05:16:02;;;;;;;6.72;4.05;;;27.20;50.30;;;;;;6151463;28;20035;-73
2021/08/16 05:19:04;;;;;;;9.10;3.17;;;27.20;50.30;;;;;;6150064;28;20468;-73
2021/08/16 05:22:07;;;;;;;5.30;3.20;;;27.20;50.40;;;;;;6150172;28;20038;-73
2021/08/16 05:25:09;;;;;;;10.00;3.67;;;27.10;50.50;;;;;;6150257;28;20471;-73
2021/08/16 05:28:10;;;;;;;6.82;2.92;;;27.10;50.60;;;;;;6150306;28;20326;-73
2021/08/16 05:31:11;;;;;;;13.25;3.05;;;27.10;50.70;;;;;;6151350;28;20051;-73
2021/08/16 05:34:12;;;;;;;6.88;3.35;;;27.10;50.60;;;;;;6124610;29;20040;-75
2021/08/16 05:37:13;;;;;;;9.05;3.95;;;27.00;50.40;;;;;;6126336;28;20116;-72
2021/08/16 05:40:16;;;;;;;9.20;3.28;;;27.00;50.30;;;;;;6126027;28;20083;-73
2021/08/16 05:43:16;;;;;;;7.57;3.80;;;26.80;50.30;;;;;;6127408;28;20481;-74
2021/08/16 05:46:17;;;;;;;12.45;3.67;;;26.80;50.30;;;;;;6127008;29;20044;-75
2021/08/16 05:49:19;;;;;;;6.22;3.58;;;26.70;50.30;;;;;;6125803;28;20040;-75
2021/08/16 05:52:20;;;;;;;5.85;3.13;;;26.70;50.20;;;;;;6127030;28;20453;-74
2021/08/16 05:55:21;;;;;;;12.13;3.58;;;26.60;50.30;;;;;;6127121;29;20032;-75
2021/08/16 05:58:22;;;;;;;12.85;3.47;;;26.50;50.30;;;;;;6125709;28;20039;-75
2021/08/16 06:01:23;;;;;;;10.05;3.42;;;26.40;50.30;;;;;;6125659;29;20036;-74
2021/08/16 06:04:24;;;;;;;6.97;3.47;;;26.40;50.40;;;;;;6146838;28;20036;-74
2021/08/16 06:07:25;;;;;;;12.07;4.00;;;26.40;50.30;;;;;;6149824;28;20094;-74
2021/08/16 06:10:26;;;;;;;6.50;3.35;;;26.40;50.20;;;;;;6134007;28;20131;-74
2021/08/16 06:13:28;;;;;;;9.07;3.40;;;26.30;50.20;;;;;;6149116;28;20062;-74
2021/08/16 06:16:29;;;;;;;6.68;3.33;;;26.30;50.20;;;;;;6149547;28;20468;-73
2021/08/16 06:19:30;;;;;;;11.98;3.80;;;26.20;50.20;;;;;;6123551;28;20051;-74
2021/08/16 06:22:31;;;;;;;6.43;3.03;;;26.20;50.20;;;;;;6149384;28;20380;-73
2021/08/16 06:25:32;;;;;;;10.93;3.85;;;26.10;50.20;;;;;;6148234;28;20043;-75
2021/08/16 06:28:33;;;;;;;12.52;3.40;;;26.10;50.20;;;;;;6149501;28;20155;-75
2021/08/16 06:31:34;;;;;;;6.18;3.10;;;26.00;50.20;;;;;;6150576;28;20035;-75
2021/08/16 06:34:40;;;;;;;5.28;3.20;;;26.10;50.30;;;;;;6153893;28;20054;-75
2021/08/16 06:37:43;;;;;;;5.68;3.75;;;26.00;50.30;;;;;;6154719;28;20039;-75
2021/08/16 06:40:44;;;;;;;10.45;3.92;;;25.90;50.20;;;;;;6155623;28;20043;-73
2021/08/16 06:43:47;;;;;;;8.30;3.35;;;25.90;50.20;;;;;;6138622;29;20043;-73
2021/08/16 06:46:48;;;;;;;10.98;3.15;;;25.90;50.20;;;;;;6155307;28;20408;-75
2021/08/16 06:49:49;;;;;;;8.40;3.20;;;25.90;50.10;;;;;;6154468;29;20483;-75
2021/08/16 06:52:50;;;;;;;10.73;3.65;;;25.80;50.10;;;;;;6154155;28;20039;-73
2021/08/16 06:55:53;;;;;;;10.82;3.53;;;25.90;50.00;;;;;;6156574;28;20118;-75
2021/08/16 06:58:55;;;;;;;14.52;3.50;;;25.80;50.00;;;;;;6153757;29;20476;-74
2021/08/16 07:01:56;;;;;;;6.85;3.10;;;25.80;50.10;;;;;;6153723;28;20126;-74
2021/08/16 07:04:57;;;;;;;9.15;3.53;;;25.80;50.10;;;;;;6155154;28;20109;-75
2021/08/16 07:07:58;;;;;;;6.50;3.42;;;26.10;50.20;;;;;;6154946;28;20040;-75
2021/08/16 07:10:59;;;;;;;11.40;3.30;;;25.70;49.90;;;;;;6154296;28;20114;-73
2021/08/16 07:14:00;;;;;;;12.60;3.90;;;25.60;50.10;;;;;;6153865;28;20039;-75
2021/08/16 07:17:01;;;;;;;10.85;4.22;;;25.50;50.30;;;;;;6154821;28;20358;-72
2021/08/16 07:20:03;;;;;;;5.85;3.30;;;25.50;50.20;;;;;;6153155;29;20105;-75
2021/08/16 07:23:04;;;;;;;7.13;3.10;;;25.60;50.20;;;;;;6154594;28;20031;-73
2021/08/16 07:26:06;;;;;;;5.70;3.28;;;25.60;50.00;;;;;;6153616;29;20491;-74
2021/08/16 07:29:07;;;;;;;10.95;3.40;;;25.60;50.10;;;;;;6154527;28;20500;-74
2021/08/16 07:32:08;;;;;;;9.60;3.33;;;25.60;50.10;;;;;;6152864;29;20036;-74
2021/08/16 07:35:09;;;;;;;7.57;3.35;;;25.60;50.00;;;;;;6153072;28;20118;-73
2021/08/16 07:38:10;;;;;;;5.03;2.30;;;25.60;50.00;;;;;;6137373;29;20050;-75
2021/08/16 07:41:12;;;;;;;11.65;3.13;;;25.60;49.90;;;;;;6137268;29;20373;-75
2021/08/16 07:44:15;;;;;;;8.68;3.22;;;25.50;49.90;;;;;;6136237;29;20047;-74
2021/08/16 07:47:16;;;;;;;5.47;2.80;;;25.50;49.90;;;;;;6128129;28;20043;-74
2021/08/16 07:50:17;;;;;;;4.32;2.65;;;25.40;49.80;;;;;;6153940;28;20093;-75
2021/08/16 07:53:18;;;;;;;6.13;3.10;;;25.40;49.90;;;;;;6152494;28;20079;-74
2021/08/16 07:56:19;;;;;;;3.78;2.13;;;25.40;49.70;;;;;;6152544;28;20454;-73
2021/08/16 07:59:20;;;;;;;5.53;2.72;;;25.40;49.40;;;;;;6152577;28;20067;-75
2021/08/16 08:02:21;;;;;;;7.10;2.72;;;25.40;49.10;;;;;;6136042;29;20117;-75
2021/08/16 08:05:24;;;;;;;6.75;3.17;;;25.40;48.60;;;;;;6152724;28;20046;-74
2021/08/16 08:08:25;;;;;;;6.28;2.63;;;25.40;48.30;;;;;;6136654;29;20066;-74
2021/08/16 08:11:26;;;;;;;7.05;2.33;;;25.50;48.20;;;;;;6153252;28;20444;-74
2021/08/16 08:14:27;;;;;;;4.05;2.40;;;25.50;47.70;;;;;;6152884;28;20043;-73
2021/08/16 08:17:28;;;;;;;6.07;2.28;;;25.50;47.40;;;;;;6153486;28;20127;-74
2021/08/16 08:20:29;;;;;;;4.57;2.25;;;25.50;47.10;;;;;;6153071;28;20066;-74
2021/08/16 08:23:30;;;;;;;3.97;2.40;;;25.60;46.80;;;;;;6152927;28;20043;-73
2021/08/16 08:26:31;;;;;;;6.95;2.03;;;25.60;46.60;;;;;;6152954;28;20109;-73
2021/08/16 08:29:32;;;;;;;4.80;2.40;;;25.60;46.40;;;;;;6152099;29;20039;-74
2021/08/16 08:32:43;;;;;;;3.78;2.00;;;25.70;46.10;;;;;;6150983;28;20073;-73
2021/08/16 08:35:49;;;;;;;5.05;2.30;;;25.80;46.00;;;;;;6151187;28;20090;-74
2021/08/16 08:38:50;;;;;;;4.75;1.92;;;25.80;45.60;;;;;;6151917;28;20046;-74
2021/08/16 08:41:56;;;;;;;7.18;2.00;;;25.90;45.20;;;;;;6152700;28;20415;-74
2021/08/16 08:44:57;;;;;;;6.82;1.55;;;25.80;44.80;;;;;;6151513;28;20035;-74
2021/08/16 08:47:59;;;;;;;3.00;1.77;;;25.80;45.00;;;;;;6152680;28;20042;-74
2021/08/16 08:51:00;;;;;;;4.00;2.00;;;25.80;44.80;;;;;;6166271;28;20039;-73
2021/08/16 08:54:01;;;;;;;3.88;1.70;;;25.80;44.80;;;;;;6176017;28;20130;-73
2021/08/16 08:57:04;;;;;;;11.98;1.73;;;25.90;44.70;;;;;;6175641;28;20043;-74
2021/08/16 09:00:08;;;;;;;3.50;1.77;;;25.90;44.70;;;;;;6176090;28;20096;-74
2021/08/16 09:03:09;;;;;;;2.92;1.33;;;25.90;44.60;;;;;;6162256;28;20106;-73
2021/08/16 09:06:16;;;;;;;4.18;1.75;;;25.80;44.30;;;;;;6150837;28;20465;-74
2021/08/16 09:09:18;;;;;;;2.95;1.65;;;25.80;44.30;;;;;;6151081;28;20035;-73
2021/08/16 09:12:34;;;;;;;3.80;1.73;;;25.80;44.40;;;;;;6150863;28;20054;-73
2021/08/16 09:15:35;;;;;;;4.85;2.00;;;25.70;44.50;;;;;;6150971;28;20079;-74
2021/08/16 09:18:36;;;;;;;4.55;1.50;;;25.80;44.50;;;;;;6149748;28;20393;-73
2021/08/16 09:21:40;;;;;;;3.60;1.65;;;25.80;44.30;;;;;;6150862;28;20464;-75
2021/08/16 09:24:41;;;;;;;7.63;1.63;;;25.90;44.10;;;;;;6150820;28;20078;-73
2021/08/16 09:27:47;;;;;;;4.95;1.90;;;25.90;44.00;;;;;;6151065;28;20036;-73
2021/08/16 09:30:48;;;;;;;6.97;1.88;;;25.90;44.10;;;;;;6152131;28;20476;-74
2021/08/16 09:33:54;;;;;;;3.33;1.70;;;25.90;43.80;;;;;;6153926;28;20074;-73
2021/08/16 09:37:00;;;;;;;6.00;1.98;;;25.90;43.50;;;;;;6169634;28;20055;-74
2021/08/16 09:40:11;;;;;;;7.43;1.58;;;25.90;43.50;;;;;;6164436;28;20050;-74
2021/08/16 09:43:12;;;;;;;3.38;1.45;;;25.90;43.30;;;;;;6157993;28;20050;-73
2021/08/16 09:46:14;;;;;;;4.45;1.50;;;26.00;43.00;;;;;;6151597;28;20123;-74
2021/08/16 09:49:22;;;;;;;8.95;1.38;;;26.00;43.10;;;;;;6134811;28;20039;-73
2021/08/16 09:52:29;;;;;;;3.97;1.30;;;26.00;42.80;;;;;;6151146;28;20471;-73
2021/08/16 09:55:30;;;;;;;3.85;1.35;;;26.10;42.90;;;;;;6134598;28;20031;-75
2021/08/16 09:58:32;;;;;;;3.88;1.83;;;26.10;42.80;;;;;;6150646;28;20527;-74
2021/08/16 10:01:35;;;;;;;5.90;1.30;;;26.10;42.60;;;;;;6151631;28;20349;-74
2021/08/16 10:04:36;;;;;;;4.72;1.45;;;26.10;42.60;;;;;;6148850;28;20027;-74
2021/08/16 10:07:38;;;;;;;3.08;1.23;;;26.10;42.70;;;;;;6135718;28;20055;-74
2021/08/16 10:10:41;;;;;;;5.97;1.42;;;26.10;42.70;;;;;;6156012;28;20050;-74
2021/08/16 10:13:44;;;;;;;7.25;1.65;;;26.20;42.70;;;;;;6155539;28;20042;-74
2021/08/16 10:16:50;;;;;;;2.47;1.42;;;26.30;42.70;;;;;;6155634;28;20436;-74
2021/08/16 10:19:55;;;;;;;3.35;1.40;;;26.40;42.60;;;;;;6154511;28;20074;-75
2021/08/16 10:22:57;;;;;;;3.38;1.45;;;26.50;42.10;;;;;;6154450;28;20039;-73
2021/08/16 10:25:59;;;;;;;5.93;1.83;;;26.50;42.00;;;;;;6155221;28;20073;-75
2021/08/16 10:29:09;;;;;;;4.38;1.50;;;26.50;42.10;;;;;;6155509;28;20031;-74
2021/08/16 10:32:21;;;;;;;8.45;1.90;;;26.40;42.30;;;;;;6153983;28;20031;-73
2021/08/16 10:35:22;;;;;;;2.58;1.50;;;26.40;42.60;;;;;;6137897;29;20517;-74
2021/08/16 10:38:24;;;;;;;4.22;1.70;;;26.40;42.60;;;;;;6153728;28;20039;-74
2021/08/16 10:41:26;;;;;;;3.58;1.42;;;26.50;42.50;;;;;;6155241;28;20047;-74
2021/08/16 10:44:38;;;;;;;3.10;1.63;;;26.60;42.40;;;;;;6155177;28;20055;-74
2021/08/16 10:47:39;;;;;;;3.47;1.45;;;26.60;42.20;;;;;;6153983;28;20465;-74
2021/08/16 10:50:39;;;;;;;4.05;1.80;;;26.60;42.10;;;;;;6157829;28;20039;-74
2021/08/16 10:53:51;;;;;;;2.85;1.63;;;26.70;42.20;;;;;;6169832;28;20073;-74
2021/08/16 10:56:54;;;;;;;3.45;1.65;;;26.70;42.20;;;;;;6169724;28;20101;-73
2021/08/16 10:59:55;;;;;;;5.70;1.98;;;26.80;42.00;;;;;;6153549;28;20035;-75
2021/08/16 11:02:57;;;;;;;3.92;2.00;;;26.80;42.10;;;;;;6153978;28;20524;-75
2021/08/16 11:06:05;;;;;;;5.95;2.25;;;26.70;42.20;;;;;;6154860;28;20102;-75
2021/08/16 11:09:06;;;;;;;4.35;1.65;;;26.70;42.20;;;;;;6154158;28;20097;-74
2021/08/16 11:12:10;;;;;;;4.32;1.77;;;26.70;42.20;;;;;;6153376;28;20043;-73
2021/08/16 11:15:17;;;;;;;4.13;1.25;;;26.80;42.30;;;;;;6137026;28;20448;-74
2021/08/16 11:18:22;;;;;;;3.55;1.58;;;26.80;42.50;;;;;;6152988;28;20039;-74
2021/08/16 11:21:26;;;;;;;3.33;1.77;;;26.80;42.80;;;;;;6153394;28;20361;-74
2021/08/16 11:24:34;;;;;;;4.85;1.50;;;26.70;43.20;;;;;;6152945;28;20496;-74
2021/08/16 11:27:35;;;;;;;3.03;1.65;;;26.70;43.50;;;;;;6153259;28;20040;-74
2021/08/16 11:30:36;;;;;;;2.65;1.38;;;26.60;43.70;;;;;;6136790;28;20039;-74
2021/08/16 11:33:37;;;;;;;3.55;1.50;;;26.70;43.60;;;;;;6153387;28;20477;-74
2021/08/16 11:36:39;;;;;;;3.88;1.33;;;27.00;43.10;;;;;;6151966;28;20467;-75
2021/08/16 11:39:40;;;;;;;4.28;1.90;;;27.30;42.60;;;;;;6153399;28;20122;-73
2021/08/16 11:42:42;;;;;;;3.65;1.83;;;27.40;42.10;;;;;;6153959;28;20126;-74
2021/08/16 11:45:43;;;;;;;5.00;1.67;;;27.60;42.50;;;;;;6154112;28;20126;-74
2021/08/16 11:48:50;;;;;;;4.13;2.03;;;27.90;41.10;;;;;;6153990;28;20539;-74
2021/08/16 11:51:52;;;;;;;2.63;1.50;;;28.30;40.50;;;;;;6136845;29;20042;-75
2021/08/16 11:54:53;;;;;;;2.78;1.70;;;28.60;39.80;;;;;;6154302;28;20039;-74
2021/08/16 11:57:55;;;;;;;3.22;1.92;;;28.80;39.10;;;;;;6153941;28;20035;-73
2021/08/16 12:00:59;;;;;;;4.30;1.80;;;28.90;38.60;;;;;;6152868;28;20051;-74
2021/08/16 12:04:01;;;;;;;6.55;2.08;;;29.00;38.40;;;;;;6152227;28;20035;-74
2021/08/16 12:07:03;;;;;;;4.43;1.65;;;28.90;38.30;;;;;;6154284;28;20043;-74
2021/08/16 12:10:15;;;;;;;4.90;1.83;;;28.70;38.30;;;;;;6153538;28;20050;-74
2021/08/16 12:13:23;;;;;;;6.47;1.75;;;28.70;38.60;;;;;;6150824;28;20039;-74
2021/08/16 12:16:28;;;;;;;;;;;28.70;38.70;;;;;;6153852;28;20416;-73
2021/08/16 12:19:30;;;;;;;6.05;1.85;;;28.90;38.60;;;;;;6149111;28;20316;-74
2021/08/16 12:22:31;;;;;;;4.45;2.15;;;28.90;38.10;;;;;;6150454;28;20042;-74
2021/08/16 12:25:32;;;;;;;4.53;1.98;;;29.00;37.90;;;;;;6151639;28;20106;-74
2021/08/16 12:28:43;;;;;;;4.80;1.85;;;29.00;37.70;;;;;;6134412;28;20039;-74
2021/08/16 12:31:44;;;;;;;7.53;1.77;;;29.20;37.50;;;;;;6149058;28;20036;-74
2021/08/16 12:34:45;;;;;;;4.43;2.20;;;29.50;36.90;;;;;;6150945;28;20031;-74
2021/08/16 12:37:52;;;;;;;7.68;2.10;;;29.60;36.50;;;;;;6150484;28;20352;-74
2021/08/16 12:41:07;;;;;;;3.08;1.55;;;29.60;36.40;;;;;;6151672;28;20031;-75
2021/08/16 12:44:25;;;;;;;3.30;1.90;;;29.70;36.40;;;;;;6134264;28;20039;-74
2021/08/16 12:47:27;;;;;;;4.13;1.90;;;30.00;36.30;;;;;;6150342;28;20393;-74
2021/08/16 12:50:30;;;;;;;5.78;2.00;;;30.50;35.60;;;;;;6170176;28;20046;-74
2021/08/16 12:53:31;;;;;;;3.47;1.70;;;30.80;34.60;;;;;;6174097;28;20046;-74
2021/08/16 12:56:32;;;;;;;3.83;2.10;;;30.80;34.50;;;;;;6174988;28;20041;-74
2021/08/16 12:59:33;;;;;;;2.95;1.55;;;31.30;33.90;;;;;;6175053;28;20109;-74
2021/08/16 13:02:34;;;;;;;5.10;1.80;;;31.50;33.00;;;;;;6167870;28;20372;-73
2021/08/16 13:05:35;;;;;;;4.20;1.90;;;31.40;33.10;;;;;;6149666;28;20051;-75
2021/08/16 13:08:36;;;;;;;6.30;2.00;;;31.30;33.20;;;;;;6151187;28;20043;-74
2021/08/16 13:11:40;;;;;;;8.52;2.10;;;31.20;33.50;;;;;;6149894;28;20039;-73
2021/08/16 13:14:41;;;;;;;6.55;1.90;;;31.50;33.40;;;;;;6150723;28;20047;-74
2021/08/16 13:17:42;;;;;;;5.72;1.90;;;32.80;31.70;;;;;;6148932;28;20070;-74
2021/08/16 13:20:43;;;;;;;6.97;1.80;;;33.70;30.20;;;;;;6149056;28;20078;-74
2021/08/16 13:23:44;;;;;;;6.05;1.70;;;34.30;29.50;;;;;;6149405;28;20412;-74
2021/08/16 13:26:46;;;;;;;2.60;1.70;;;34.60;29.10;;;;;;6134293;28;20043;-74
2021/08/16 13:29:47;;;;;;;2.70;1.50;;;35.10;28.90;;;;;;6150726;28;20051;-74
2021/08/16 13:32:48;;;;;;;5.82;2.00;;;35.30;28.40;;;;;;6148766;28;20479;-74
2021/08/16 13:35:49;;;;;;;6.28;2.00;;;35.30;28.30;;;;;;6148749;28;20087;-74
2021/08/16 13:38:50;;;;;;;4.78;2.20;;;35.10;28.40;;;;;;6149531;28;20349;-74
2021/08/16 13:41:54;;;;;;;4.88;1.70;;;35.70;28.00;;;;;;6150826;28;20035;-74
2021/08/16 13:44:55;;;;;;;4.38;1.67;;;37.00;26.80;;;;;;6154348;28;20416;-74
2021/08/16 13:47:56;;;;;;;7.20;2.17;;;38.40;25.40;;;;;;6153040;28;20043;-74
2021/08/16 13:50:57;;;;;;;4.88;1.85;;;39.30;24.30;;;;;;6154458;28;20046;-74
2021/08/16 13:53:59;;;;;;;4.25;1.83;;;39.60;23.90;;;;;;6154030;28;20170;-74
2021/08/16 13:57:01;;;;;;;4.80;1.90;;;39.60;23.70;;;;;;6155900;28;20043;-74
2021/08/16 14:00:04;;;;;;;8.30;2.30;;;39.50;24.00;;;;;;6158711;28;20135;-74
2021/08/16 14:03:05;;;;;;;4.65;2.83;;;39.40;24.30;;;;;;6157712;28;20040;-74
2021/08/16 14:06:07;;;;;;;4.32;1.88;;;39.30;24.50;;;;;;6155768;28;20031;-74
2021/08/16 14:09:09;;;;;;;5.53;1.45;;;39.90;23.90;;;;;;6155235;28;20035;-74
2021/08/16 14:12:10;;;;;;;3.20;1.90;;;39.60;23.80;;;;;;6154396;28;20113;-74
2021/08/16 14:15:12;;;;;;;3.90;1.70;;;39.80;23.50;;;;;;6138293;28;20039;-73
2021/08/16 14:18:13;;;;;;;4.82;1.98;;;40.30;22.70;;;;;;6153945;28;20039;-73
2021/08/16 14:21:14;;;;;;;4.10;1.58;;;40.90;22.10;;;;;;6153674;28;20122;-73
2021/08/16 14:24:16;;;;;;;7.85;1.80;;;41.60;21.90;;;;;;6152154;28;20436;-74
2021/08/16 14:27:17;;;;;;;5.53;2.25;;;42.00;21.10;;;;;;6154025;28;20057;-74
2021/08/16 14:30:18;;;;;;;3.55;1.88;;;41.80;21.50;;;;;;6153614;28;20070;-74
2021/08/16 14:33:22;;;;;;;3.72;1.58;;;41.40;21.50;;;;;;6152898;28;20031;-73
2021/08/16 14:36:23;;;;;;;4.28;1.98;;;40.50;22.30;;;;;;6153477;28;20441;-73
2021/08/16 14:39:24;;;;;;;4.82;1.63;;;39.30;23.10;;;;;;6139339;28;20030;-73
2021/08/16 14:42:26;;;;;;;5.35;1.80;;;37.90;24.10;;;;;;6153801;28;20035;-73
2021/08/16 14:45:27;;;;;;;3.85;1.95;;;36.80;25.20;;;;;;6154375;28;20039;-73
2021/08/16 14:48:28;;;;;;;3.50;2.08;;;35.70;26.00;;;;;;6153964;28;20405;-73
2021/08/16 14:51:29;;;;;;;7.00;1.90;;;34.60;27.40;;;;;;6127798;28;20046;-73
2021/08/16 14:54:31;;;;;;;4.93;1.60;;;34.00;27.90;;;;;;6152261;28;20047;-73
2021/08/16 14:57:32;;;;;;;3.22;1.40;;;33.30;28.60;;;;;;6153935;28;20039;-74
2021/08/16 15:00:33;;;;;;;5.03;1.85;;;32.70;28.90;;;;;;6154309;28;20097;-74
2021/08/16 15:03:37;;;;;;;4.07;1.38;;;32.20;29.40;;;;;;6152233;28;20046;-74
2021/08/16 15:06:38;;;;;;;4.75;2.03;;;31.80;29.80;;;;;;6152686;28;20035;-73
2021/08/16 15:09:39;;;;;;;9.25;1.80;;;31.60;30.20;;;;;;6153840;28;20045;-73
2021/08/16 15:12:40;;;;;;;3.17;1.70;;;31.30;30.40;;;;;;6151895;28;20035;-73
2021/08/16 15:15:42;;;;;;;5.55;2.08;;;30.90;30.70;;;;;;6152502;28;20517;-74
2021/08/16 15:18:43;;;;;;;5.75;1.80;;;30.70;31.20;;;;;;6153179;28;20050;-74
2021/08/16 15:21:44;;;;;;;4.45;2.50;;;30.50;31.30;;;;;;6152108;28;20437;-74
2021/08/16 15:24:45;;;;;;;3.80;1.80;;;30.50;30.80;;;;;;6153516;28;20034;-73
2021/08/16 15:27:51;;;;;;;5.28;1.88;;;30.40;30.60;;;;;;6152354;28;20081;-73
2021/08/16 15:30:52;;;;;;;2.60;1.50;;;30.30;31.10;;;;;;6152908;28;20031;-74
2021/08/16 15:33:53;;;;;;;3.45;1.50;;;30.30;32.10;;;;;;6151238;28;20039;-74
2021/08/16 15:36:54;;;;;;;3.33;1.40;;;30.20;31.80;;;;;;6151938;28;20042;-74
2021/08/16 15:39:56;;;;;;;7.78;1.23;;;30.30;31.40;;;;;;6135372;28;20035;-74
2021/08/16 15:42:57;;;;;;;3.20;0.90;;;30.50;31.30;;;;;;6152042;28;20035;-74
2021/08/16 15:45:58;;;;;;;4.25;1.05;;;31.10;30.40;;;;;;6135903;28;20054;-74